Time;durP1;ratioP1;P1;durP2;ratioP2;P2;SDS_P1;SDS_P2;PMS_P1;PMS_P2;Temp;Humidity;BMP_temperature;BMP_pressure;BME280_temperature;BME280_humidity;BME280_pressure;Samples;Min_cycle;Max_cycle;Signal;HPM_P1;HPM_P2
2022/05/19 00:00:26;;;;;;;83.18;61.53;;;11.80;99.90;;;;;;5014288;28;20519;-22
2022/05/19 00:02:52;;;;;;;90.95;64.18;;;12.00;99.90;;;;;;5013568;28;20124;-25
2022/05/19 00:05:18;;;;;;;109.88;77.45;;;12.20;99.90;;;;;;5013045;28;20477;-22
2022/05/19 00:07:43;;;;;;;108.03;72.28;;;12.40;99.90;;;;;;5014208;28;20068;-23
2022/05/19 00:10:09;;;;;;;88.65;59.25;;;12.50;99.90;;;;;;5014582;28;20045;-23
2022/05/19 00:12:35;;;;;;;79.55;55.10;;;12.50;99.90;;;;;;5014319;28;20046;-23
2022/05/19 00:15:01;;;;;;;62.60;50.33;;;12.60;99.90;;;;;;5014572;28;20124;-23
2022/05/19 00:17:27;;;;;;;88.65;64.35;;;12.40;99.90;;;;;;5017297;28;20116;-23
2022/05/19 00:19:53;;;;;;;87.13;60.20;;;12.50;99.90;;;;;;5013847;28;20133;-23
2022/05/19 00:22:19;;;;;;;77.80;61.88;;;12.50;99.90;;;;;;5012813;28;20041;-23
2022/05/19 00:24:44;;;;;;;89.97;65.78;;;12.80;99.90;;;;;;5014159;28;20104;-23
2022/05/19 00:27:10;;;;;;;76.13;57.97;;;12.80;99.90;;;;;;5013101;28;20058;-23
2022/05/19 00:29:36;;;;;;;82.47;61.97;;;13.00;99.90;;;;;;5014584;28;20065;-23
2022/05/19 00:32:02;;;;;;;86.18;64.18;;;13.00;99.90;;;;;;5013337;28;20042;-26
2022/05/19 00:34:27;;;;;;;88.88;61.20;;;13.00;99.90;;;;;;5029319;28;20038;-23
2022/05/19 00:37:01;;;;;;;82.57;56.83;;;13.20;99.90;;;;;;5012374;28;20046;-23
2022/05/19 00:39:28;;;;;;;73.45;56.72;;;13.60;99.90;;;;;;5013365;28;20066;-23
2022/05/19 00:42:43;;;;;;;80.75;55.50;;;13.40;99.90;;;;;;5016929;28;20038;-23
2022/05/19 00:44:40;;;;;;;72.22;52.42;;;13.40;99.90;;;;;;5014701;28;20054;-23
2022/05/19 00:47:11;;;;;;;68.22;50.05;;;13.50;99.90;;;;;;5012236;28;20052;-23
2022/05/19 00:49:42;;;;;;;64.75;50.72;;;13.60;99.90;;;;;;5013767;28;20037;-23
2022/05/19 00:52:14;;;;;;;56.85;47.03;;;13.60;99.90;;;;;;5014729;28;20404;-23
2022/05/19 00:54:44;;;;;;;60.30;47.42;;;13.70;99.90;;;;;;5013727;28;20049;-23
2022/05/19 00:57:20;;;;;;;58.58;46.30;;;13.70;99.90;;;;;;5013737;28;20050;-23
2022/05/19 00:59:51;;;;;;;63.00;50.13;;;13.80;99.90;;;;;;5011828;28;20509;-23
2022/05/19 01:02:22;;;;;;;61.13;42.60;;;13.80;99.90;;;;;;5013245;28;20038;-23
2022/05/19 01:05:00;;;;;;;47.53;40.60;;;13.90;99.90;;;;;;5012190;28;20045;-23
2022/05/19 01:08:19;;;;;;;57.00;41.08;;;13.80;99.90;;;;;;5028287;28;20096;-23
2022/05/19 01:10:45;;;;;;;54.22;42.33;;;13.90;99.90;;;;;;5009550;28;20089;-23
2022/05/19 01:13:14;;;;;;;51.33;42.50;;;13.90;99.90;;;;;;5014054;28;20116;-23
2022/05/19 01:15:43;;;;;;;47.17;37.97;;;13.90;99.90;;;;;;5013615;28;20050;-23
2022/05/19 01:18:12;;;;;;;49.33;38.35;;;14.00;99.90;;;;;;5009812;28;20081;-23
2022/05/19 01:20:38;;;;;;;49.13;37.30;;;14.00;99.90;;;;;;5016662;28;20042;-23
2022/05/19 01:23:28;;;;;;;52.20;39.97;;;14.10;99.90;;;;;;5016625;28;20543;-24
2022/05/19 01:26:04;;;;;;;55.53;40.22;;;14.10;99.90;;;;;;5016912;28;20065;-24
2022/05/19 01:28:30;;;;;;;46.78;38.78;;;14.00;99.90;;;;;;5016839;28;20547;-23
2022/05/19 01:30:56;;;;;;;54.40;39.42;;;14.10;99.90;;;;;;5017761;28;20144;-23
2022/05/19 01:33:21;;;;;;;51.72;38.42;;;14.10;99.90;;;;;;5016702;28;20157;-23
2022/05/19 01:35:47;;;;;;;46.22;36.60;;;14.10;99.90;;;;;;4999731;28;20131;-23
2022/05/19 01:38:30;;;;;;;50.58;39.88;;;14.20;99.90;;;;;;5029721;28;20077;-23
2022/05/19 01:41:07;;;;;;;52.17;38.58;;;14.10;99.90;;;;;;5036031;28;20057;-23
2022/05/19 01:44:21;;;;;;;53.63;41.65;;;14.20;99.90;;;;;;5036885;28;20049;-23
2022/05/19 01:46:52;;;;;;;51.22;42.00;;;14.10;99.90;;;;;;5018101;28;20065;-23
2022/05/19 01:49:24;;;;;;;51.60;42.40;;;14.10;99.90;;;;;;5016862;28;20374;-23
2022/05/19 01:51:56;;;;;;;56.00;43.28;;;14.10;99.90;;;;;;5016381;28;20121;-23
2022/05/19 01:54:56;;;;;;;57.47;44.63;;;14.10;99.90;;;;;;5014859;28;20045;-23
2022/05/19 01:57:32;;;;;;;57.75;47.05;;;14.10;99.90;;;;;;5017953;28;20053;-22
2022/05/19 02:00:34;;;;;;;62.20;47.85;;;14.10;99.90;;;;;;5016186;28;20050;-23
2022/05/19 02:03:18;;;;;;;56.65;45.85;;;14.10;99.90;;;;;;5011613;28;20382;-23
2022/05/19 02:05:46;;;;;;;55.22;43.08;;;14.10;99.90;;;;;;5027553;28;20500;-26
2022/05/19 02:08:17;;;;;;;51.63;42.58;;;14.10;99.90;;;;;;5026383;28;20049;-24
2022/05/19 02:10:48;;;;;;;55.25;41.90;;;14.20;99.90;;;;;;5035689;28;20462;-23
2022/05/19 02:13:15;;;;;;;49.10;42.38;;;14.30;99.90;;;;;;5020093;28;20141;-23
2022/05/19 02:15:45;;;;;;;50.03;39.15;;;14.20;99.90;;;;;;5016380;28;20088;-23
2022/05/19 02:18:12;;;;;;;55.05;42.40;;;14.20;99.90;;;;;;5018700;28;20046;-23
2022/05/19 02:20:42;;;;;;;54.90;42.03;;;14.30;99.90;;;;;;5015377;28;20049;-23
2022/05/19 02:23:11;;;;;;;56.67;42.80;;;14.30;99.90;;;;;;5015193;28;20160;-23
2022/05/19 02:25:51;;;;;;;57.53;44.08;;;14.20;99.90;;;;;;4998921;28;20058;-23
2022/05/19 02:28:45;;;;;;;49.00;40.72;;;14.20;99.90;;;;;;5018187;28;20050;-23
2022/05/19 02:31:11;;;;;;;54.30;43.05;;;14.10;99.90;;;;;;5017641;28;20088;-23
2022/05/19 02:33:36;;;;;;;61.42;44.35;;;14.10;99.90;;;;;;5035790;28;20057;-23
2022/05/19 02:36:04;;;;;;;52.78;42.10;;;14.10;99.90;;;;;;5031679;28;20038;-23
2022/05/19 02:38:30;;;;;;;56.60;44.55;;;14.00;99.90;;;;;;5016923;28;20046;-23
2022/05/19 02:40:55;;;;;;;52.40;45.28;;;14.10;99.90;;;;;;5034534;28;20084;-23
2022/05/19 02:43:21;;;;;;;56.85;43.60;;;14.10;99.90;;;;;;5015353;28;20042;-23
2022/05/19 02:45:47;;;;;;;50.95;42.95;;;14.20;99.90;;;;;;5015600;28;20053;-26
2022/05/19 02:48:15;;;;;;;60.90;46.80;;;14.10;99.90;;;;;;5032262;28;20432;-23
2022/05/19 02:50:42;;;;;;;57.47;46.95;;;14.10;99.90;;;;;;5015958;28;20038;-23
2022/05/19 02:53:09;;;;;;;65.47;49.58;;;14.20;99.90;;;;;;5014177;28;20049;-23
2022/05/19 02:55:35;;;;;;;65.93;49.30;;;14.20;99.90;;;;;;5013966;28;20046;-23
2022/05/19 02:58:00;;;;;;;64.82;50.40;;;14.30;99.90;;;;;;5014336;28;20046;-24
2022/05/19 03:00:26;;;;;;;72.90;53.88;;;14.30;99.90;;;;;;5016647;28;20037;-23
2022/05/19 03:02:54;;;;;;;73.80;57.58;;;14.40;99.90;;;;;;5014215;28;20046;-23
2022/05/19 03:05:23;;;;;;;77.35;57.30;;;14.40;99.90;;;;;;5013996;28;20117;-23
2022/05/19 03:07:49;;;;;;;74.97;58.22;;;14.60;99.90;;;;;;5014311;28;20042;-26
2022/05/19 03:10:15;;;;;;;73.70;55.47;;;14.60;99.90;;;;;;5024109;28;20053;-23
2022/05/19 03:12:41;;;;;;;72.45;58.00;;;14.70;99.90;;;;;;5018363;28;20050;-23
2022/05/19 03:15:08;;;;;;;73.50;58.28;;;14.70;99.90;;;;;;5014977;28;20056;-23
2022/05/19 03:17:33;;;;;;;73.57;57.70;;;14.80;99.90;;;;;;5014570;28;20049;-26
2022/05/19 03:19:59;;;;;;;74.05;58.63;;;14.90;99.90;;;;;;5030953;28;20046;-23
2022/05/19 03:22:26;;;;;;;74.25;58.22;;;14.90;99.90;;;;;;5014914;28;20432;-23
2022/05/19 03:24:52;;;;;;;71.82;57.60;;;14.90;99.90;;;;;;5013701;28;20077;-24
2022/05/19 03:27:20;;;;;;;79.82;60.00;;;14.90;99.90;;;;;;5013353;28;20065;-24
2022/05/19 03:29:46;;;;;;;78.32;62.70;;;15.00;99.90;;;;;;5015031;28;20050;-23
2022/05/19 03:32:12;;;;;;;83.72;59.10;;;15.00;99.90;;;;;;5014780;28;20057;-24
2022/05/19 03:34:38;;;;;;;73.93;57.35;;;15.00;99.90;;;;;;5014848;28;20057;-23
2022/05/19 03:37:05;;;;;;;72.07;55.72;;;15.00;99.90;;;;;;5014234;28;20057;-23
2022/05/19 03:39:31;;;;;;;75.22;57.90;;;15.10;99.90;;;;;;5013419;28;20048;-23
2022/05/19 03:41:57;;;;;;;67.32;55.50;;;15.10;99.90;;;;;;5014720;28;20374;-23
2022/05/19 03:44:23;;;;;;;68.93;52.90;;;15.10;99.90;;;;;;5014390;28;20042;-23
2022/05/19 03:46:49;;;;;;;70.60;53.30;;;15.10;99.90;;;;;;4997285;28;20440;-23
2022/05/19 03:49:14;;;;;;;72.80;55.25;;;15.20;99.90;;;;;;5013323;28;20042;-23
2022/05/19 03:51:42;;;;;;;67.28;50.78;;;15.20;99.90;;;;;;5014257;28;20053;-24
2022/05/19 03:54:08;;;;;;;69.00;54.55;;;15.20;99.90;;;;;;5013656;28;20042;-23
2022/05/19 03:56:35;;;;;;;66.38;49.33;;;15.20;99.90;;;;;;5017616;28;20045;-23
2022/05/19 03:59:01;;;;;;;66.30;52.10;;;15.20;99.90;;;;;;5024266;28;20054;-23
2022/05/19 04:01:27;;;;;;;69.97;52.60;;;15.30;99.90;;;;;;5034179;28;20044;-23
2022/05/19 04:03:54;;;;;;;61.05;48.53;;;15.30;99.90;;;;;;5013669;28;20137;-23
2022/05/19 04:06:20;;;;;;;68.03;52.47;;;15.30;99.90;;;;;;5015451;28;20116;-23
2022/05/19 04:08:46;;;;;;;64.32;49.60;;;14.80;99.90;;;;;;5013964;28;20486;-23
2022/05/19 04:11:12;;;;;;;60.40;48.58;;;15.30;99.90;;;;;;5017325;28;20088;-23
2022/05/19 04:13:37;;;;;;;67.15;47.67;;;15.20;99.90;;;;;;5026626;28;20350;-23
2022/05/19 04:16:03;;;;;;;56.10;44.33;;;15.20;99.10;;;;;;5014513;28;20045;-23
2022/05/19 04:18:30;;;;;;;59.92;45.05;;;15.30;85.30;;;;;;5014510;28;20053;-23
2022/05/19 04:20:56;;;;;;;52.78;40.60;;;15.20;79.30;;;;;;5014492;28;20041;-23
2022/05/19 04:23:22;;;;;;;55.17;43.13;;;15.20;75.30;;;;;;5015910;28;20117;-24
2022/05/19 04:25:48;;;;;;;54.30;42.35;;;15.30;72.80;;;;;;5024701;28;20053;-24
2022/05/19 04:28:14;;;;;;;60.20;41.42;;;15.40;66.50;;;;;;5012794;28;20034;-23
2022/05/19 04:30:41;;;;;;;55.83;44.08;;;15.40;57.60;;;;;;5014458;28;20125;-23
2022/05/19 04:33:07;;;;;;;52.65;41.80;;;15.50;52.20;;;;;;5013449;28;20049;-23
2022/05/19 04:35:33;;;;;;;61.80;43.88;;;15.50;47.30;;;;;;5012446;28;20528;-23
2022/05/19 04:38:02;;;;;;;53.38;43.10;;;15.70;44.30;;;;;;5012306;28;20046;-23
2022/05/19 04:40:28;;;;;;;55.22;43.05;;;15.80;48.90;;;;;;5014773;28;20153;-23
2022/05/19 04:42:54;;;;;;;60.25;44.75;;;15.90;50.90;;;;;;5016313;28;20513;-23
2022/05/19 04:45:20;;;;;;;58.20;45.08;;;16.10;47.80;;;;;;5026972;28;20071;-23
2022/05/19 04:47:47;;;;;;;52.30;42.95;;;16.20;30.30;;;;;;5033633;28;20037;-23
2022/05/19 04:50:13;;;;;;;58.63;44.30;;;16.30;10.10;;;;;;5020146;28;20054;-23
2022/05/19 04:52:39;;;;;;;63.83;45.35;;;16.30;1.00;;;;;;5013796;28;20045;-23
2022/05/19 04:55:07;;;;;;;60.20;46.03;;;16.50;1.00;;;;;;5012300;28;20391;-23
2022/05/19 04:57:33;;;;;;;63.95;48.55;;;16.60;1.00;;;;;;5013708;28;20050;-23
2022/05/19 04:59:59;;;;;;;65.57;48.38;;;16.60;1.00;;;;;;5016670;28;20045;-23
2022/05/19 05:02:24;;;;;;;63.72;50.90;;;16.80;1.00;;;;;;5013475;28;20478;-23
2022/05/19 05:04:50;;;;;;;71.18;53.63;;;16.80;1.00;;;;;;5012259;28;20045;-24
2022/05/19 05:07:16;;;;;;;64.38;53.08;;;16.80;1.00;;;;;;5013036;28;20042;-24
2022/05/19 05:09:41;;;;;;;68.13;53.28;;;16.90;1.00;;;;;;5014085;28;20063;-24
2022/05/19 05:12:08;;;;;;;64.55;51.50;;;16.90;1.00;;;;;;5016696;28;20046;-23
2022/05/19 05:14:33;;;;;;;70.78;52.72;;;17.00;1.00;;;;;;5012475;28;20100;-23
2022/05/19 05:16:59;;;;;;;67.07;52.30;;;17.00;1.00;;;;;;5011570;28;20049;-24
2022/05/19 05:19:25;;;;;;;68.13;53.25;;;16.90;1.00;;;;;;5013159;28;20481;-23
2022/05/19 05:21:57;;;;;;;67.50;54.05;;;17.00;1.00;;;;;;5013586;28;20060;-23
2022/05/19 05:24:23;;;;;;;72.45;53.88;;;17.00;1.00;;;;;;5014464;28;20133;-23
2022/05/19 05:26:49;;;;;;;72.63;54.30;;;17.00;1.00;;;;;;5011317;28;20061;-23
2022/05/19 05:29:14;;;;;;;58.80;45.70;;;17.10;1.00;;;;;;5012648;28;20049;-23
2022/05/19 05:31:40;;;;;;;59.53;45.72;;;17.10;1.00;;;;;;5012863;28;20088;-24
2022/05/19 05:34:07;;;;;;;58.30;43.65;;;17.10;1.00;;;;;;5012968;28;20077;-23
2022/05/19 05:36:33;;;;;;;52.63;44.38;;;17.40;1.00;;;;;;5012792;28;20054;-23
2022/05/19 05:38:59;;;;;;;54.83;41.92;;;17.30;99.90;;;;;;5013739;28;20389;-23
2022/05/19 05:41:25;;;;;;;56.95;43.50;;;17.40;99.90;;;;;;5020285;28;20053;-23
2022/05/19 05:43:51;;;;;;;44.47;36.08;;;17.60;99.90;;;;;;5020136;28;20057;-24
2022/05/19 05:46:17;;;;;;;49.10;37.92;;;17.60;99.90;;;;;;5006187;28;20041;-23
2022/05/19 05:48:45;;;;;;;42.28;31.73;;;17.70;99.90;;;;;;5012130;28;20042;-24
2022/05/19 05:51:13;;;;;;;42.50;33.15;;;17.90;97.00;;;;;;5012841;28;20054;-23
2022/05/19 05:53:40;;;;;;;41.60;33.78;;;18.00;1.00;;;;;;5013287;28;20097;-23
2022/05/19 05:56:08;;;;;;;39.95;31.65;;;18.00;1.00;;;;;;5012831;28;20402;-24
2022/05/19 05:58:34;;;;;;;37.95;30.52;;;18.20;1.00;;;;;;5012889;28;20046;-24
2022/05/19 06:01:05;;;;;;;39.50;30.27;;;18.30;99.90;;;;;;5012926;28;20050;-23
2022/05/19 06:03:32;;;;;;;38.40;31.52;;;18.30;99.90;;;;;;5015361;28;20092;-23
2022/05/19 06:05:58;;;;;;;41.10;30.15;;;18.30;99.90;;;;;;5016170;28;20049;-23
2022/05/19 06:08:24;;;;;;;40.58;31.98;;;18.20;99.90;;;;;;5016664;28;20370;-23
2022/05/19 06:10:50;;;;;;;37.92;29.77;;;18.30;99.90;;;;;;5019626;28;20044;-23
2022/05/19 06:13:17;;;;;;;36.55;28.23;;;18.20;99.90;;;;;;5015912;28;20045;-24
2022/05/19 06:15:43;;;;;;;35.38;28.02;;;18.40;99.90;;;;;;5015971;28;20132;-23
2022/05/19 06:18:09;;;;;;;33.38;27.30;;;18.30;1.00;;;;;;5014363;28;20080;-23
2022/05/19 06:20:35;;;;;;;32.65;27.13;;;18.40;1.00;;;;;;5016395;28;20042;-24
2022/05/19 06:23:01;;;;;;;43.10;32.17;;;18.40;1.00;;;;;;5016182;28;20445;-23
2022/05/19 06:25:27;;;;;;;33.72;28.50;;;18.50;1.00;;;;;;5020387;28;20073;-24
2022/05/19 06:27:53;;;;;;;33.75;27.83;;;18.50;1.00;;;;;;5027870;28;20045;-24
2022/05/19 06:30:20;;;;;;;36.30;29.70;;;18.60;1.00;;;;;;5027736;28;20048;-23
2022/05/19 06:32:49;;;;;;;36.65;29.38;;;18.60;99.90;;;;;;5015203;28;20046;-23
2022/05/19 06:35:21;;;;;;;35.83;28.85;;;18.50;99.90;;;;;;5016006;28;20049;-23
2022/05/19 06:37:47;;;;;;;41.72;31.08;;;18.30;99.90;;;;;;5016701;28;20045;-23
2022/05/19 06:40:16;;;;;;;37.05;26.83;;;18.10;99.90;;;;;;5015999;28;20042;-23
2022/05/19 06:42:44;;;;;;;33.10;22.88;;;18.00;1.00;;;;;;5032888;28;20419;-23
2022/05/19 06:45:11;;;;;;;32.58;25.45;;;17.90;1.00;;;;;;5035720;28;20041;-23
2022/05/19 06:47:38;;;;;;;39.08;29.38;;;17.70;1.00;;;;;;5034715;28;20109;-23
2022/05/19 06:50:06;;;;;;;38.33;28.30;;;17.60;1.00;;;;;;5019421;28;20050;-23
2022/05/19 06:52:32;;;;;;;38.63;30.75;;;17.60;85.90;;;;;;5025623;28;20045;-22
2022/05/19 06:55:02;;;;;;;43.78;32.17;;;17.40;99.90;;;;;;5036098;28;20363;-22
2022/05/19 06:57:30;;;;;;;38.17;29.45;;;17.40;99.90;;;;;;5018314;28;20120;-22
2022/05/19 06:59:56;;;;;;;37.60;30.23;;;17.30;99.90;;;;;;5017869;28;20124;-22
2022/05/19 07:02:23;;;;;;;39.55;32.67;;;17.30;99.90;;;;;;5035117;28;20129;-22
2022/05/19 07:04:49;;;;;;;38.28;29.98;;;17.40;1.00;;;;;;5035392;28;20479;-23
2022/05/19 07:07:15;;;;;;;36.45;28.65;;;17.50;1.00;;;;;;5034986;28;20081;-22
2022/05/19 07:09:42;;;;;;;37.15;29.08;;;17.70;1.00;;;;;;5017700;28;20140;-22
2022/05/19 07:12:09;;;;;;;35.72;27.15;;;17.90;1.00;;;;;;5014747;28;20038;-22
2022/05/19 07:14:35;;;;;;;33.72;27.70;;;18.00;1.00;;;;;;5015316;28;20046;-22
2022/05/19 07:17:01;;;;;;;35.42;26.80;;;18.00;1.00;;;;;;5015719;28;20089;-26
2022/05/19 07:22:21;;;;;;;35.85;27.95;;;18.30;1.00;;;;;;5014564;28;20045;-23
2022/05/19 07:24:47;;;;;;;28.52;24.63;;;18.40;99.90;;;;;;5015555;28;20080;-22
2022/05/19 07:27:13;;;;;;;32.20;25.95;;;18.30;99.90;;;;;;5015633;28;20057;-23
2022/05/19 07:29:39;;;;;;;37.88;26.45;;;18.30;99.90;;;;;;5015150;28;20604;-23
2022/05/19 07:32:05;;;;;;;30.90;25.77;;;18.50;99.90;;;;;;5015561;28;20045;-23
2022/05/19 07:34:33;;;;;;;33.35;23.65;;;18.40;99.90;;;;;;5017058;28;20049;-23
2022/05/19 07:37:00;;;;;;;29.55;19.90;;;18.50;99.90;;;;;;5015229;28;20421;-23
2022/05/19 07:39:26;;;;;;;30.48;17.60;;;18.30;99.90;;;;;;5014958;28;20105;-23
2022/05/19 07:41:55;;;;;;;26.02;17.83;;;18.40;99.90;;;;;;4997429;28;20042;-23
2022/05/19 07:44:21;;;;;;;25.50;15.15;;;18.60;99.90;;;;;;5013719;28;20073;-24
2022/05/19 07:46:48;;;;;;;25.65;14.75;;;18.40;99.90;;;;;;5034568;28;20046;-23
2022/05/19 07:49:14;;;;;;;25.17;12.32;;;18.50;99.90;;;;;;5033583;28;20053;-23
2022/05/19 07:51:42;;;;;;;24.58;12.45;;;18.50;99.90;;;;;;5034482;28;20041;-23
2022/05/19 07:54:10;;;;;;;19.08;10.52;;;18.40;92.30;;;;;;5029322;28;20045;-23
2022/05/19 07:56:39;;;;;;;22.17;9.27;;;18.40;12.70;;;;;;5020214;28;20545;-23
2022/05/19 07:59:09;;;;;;;21.02;9.85;;;18.30;1.00;;;;;;5023077;28;20045;-23
2022/05/19 08:01:37;;;;;;;21.27;9.88;;;18.40;1.00;;;;;;5017375;28;20452;-23
2022/05/19 08:04:06;;;;;;;26.95;9.30;;;18.40;1.00;;;;;;5027980;28;20045;-23
2022/05/19 08:06:33;;;;;;;18.40;8.63;;;18.50;1.00;;;;;;5030167;28;20497;-23
2022/05/19 08:09:00;;;;;;;21.80;9.75;;;18.60;1.00;;;;;;5034161;28;20059;-23
2022/05/19 08:11:27;;;;;;;21.40;10.38;;;18.90;1.00;;;;;;5033016;28;20167;-23
2022/05/19 08:16:37;;;;;;;21.77;8.18;;;19.10;1.00;;;;;;5014805;28;20153;-23
2022/05/19 08:19:04;;;;;;;23.25;8.25;;;19.10;99.90;;;;;;5014533;28;20517;-23
2022/05/19 08:21:31;;;;;;;16.80;8.73;;;19.10;99.90;;;;;;5018906;28;20041;-23
2022/05/19 08:23:57;;;;;;;16.60;8.15;;;19.20;99.90;;;;;;5023878;28;20045;-23
2022/05/19 08:26:23;;;;;;;22.70;9.18;;;19.10;99.90;;;;;;5032529;28;20088;-23
2022/05/19 08:28:51;;;;;;;17.27;8.48;;;19.10;99.90;;;;;;5027382;28;20054;-23
2022/05/19 08:31:23;;;;;;;22.20;10.45;;;19.00;99.90;;;;;;5033712;28;20048;-23
2022/05/19 08:33:52;;;;;;;19.95;9.00;;;18.90;99.90;;;;;;5033654;28;20061;-23
2022/05/19 08:36:18;;;;;;;21.20;9.75;;;18.90;99.90;;;;;;5033738;28;20107;-23
2022/05/19 08:38:47;;;;;;;23.92;10.23;;;19.00;99.90;;;;;;5029692;28;20045;-23
2022/05/19 08:41:21;;;;;;;23.50;9.80;;;19.10;99.90;;;;;;5012769;28;20103;-23
2022/05/19 08:44:27;;;;;;;15.10;8.70;;;19.40;99.90;;;;;;5013974;28;20132;-23
2022/05/19 08:46:57;;;;;;;16.45;8.63;;;19.60;99.90;;;;;;5012547;28;20140;-23
2022/05/19 08:49:30;;;;;;;15.63;8.93;;;19.80;99.90;;;;;;5015882;28;20061;-24
2022/05/19 08:52:07;;;;;;;15.82;9.02;;;20.20;99.90;;;;;;5032839;28;20049;-24
2022/05/19 08:54:37;;;;;;;19.45;9.38;;;20.40;73.70;;;;;;5032745;28;20048;-24
2022/05/19 08:57:35;;;;;;;14.98;8.48;;;20.80;31.60;;;;;;5033256;28;20468;-23
2022/05/19 09:00:11;;;;;;;17.00;8.75;;;21.20;1.00;;;;;;5025950;28;20080;-24
2022/05/19 09:03:14;;;;;;;12.15;7.53;;;21.70;1.00;;;;;;5012343;28;20037;-24
2022/05/19 09:06:04;;;;;;;16.77;7.75;;;22.10;99.90;;;;;;5013775;28;20552;-24
2022/05/19 09:09:02;;;;;;;15.48;7.47;;;22.30;99.90;;;;;;5013372;28;20513;-24
2022/05/19 09:11:50;;;;;;;12.55;6.82;;;22.50;99.90;;;;;;5012445;28;20041;-24
2022/05/19 09:14:24;;;;;;;20.27;12.45;;;22.70;99.90;;;;;;4996168;28;20081;-24
2022/05/19 09:16:53;;;;;;;11.73;7.43;;;23.10;99.90;;;;;;5013767;28;20085;-24
2022/05/19 09:19:31;;;;;;;12.52;7.28;;;23.50;99.90;;;;;;5012601;28;20068;-24
2022/05/19 09:22:13;;;;;;;8.98;6.55;;;23.80;59.50;;;;;;5014874;28;20067;-24
2022/05/19 09:24:46;;;;;;;9.85;6.20;;;24.00;1.00;;;;;;5032957;28;20083;-24
2022/05/19 09:27:12;;;;;;;11.13;6.53;;;24.20;1.00;;;;;;5032298;28;20412;-24
2022/05/19 09:29:51;;;;;;;10.55;6.28;;;24.40;1.00;;;;;;5033270;28;20499;-24
2022/05/19 09:32:29;;;;;;;10.73;6.07;;;24.70;1.00;;;;;;5030400;28;20462;-25
2022/05/19 09:35:13;;;;;;;11.23;6.22;;;25.20;1.00;;;;;;5023820;28;20594;-24
2022/05/19 09:37:59;;;;;;;9.18;6.28;;;25.30;1.00;;;;;;5019084;28;20049;-25
2022/05/19 09:40:28;;;;;;;8.55;5.53;;;25.30;1.00;;;;;;5027224;28;20099;-24
2022/05/19 09:42:59;;;;;;;7.82;5.85;;;25.60;1.00;;;;;;5035743;28;20045;-24
2022/05/19 09:45:30;;;;;;;10.82;6.22;;;25.70;1.00;;;;;;5037252;28;20390;-24
2022/05/19 09:48:03;;;;;;;9.82;5.80;;;25.70;99.90;;;;;;5037112;28;20488;-24
2022/05/19 09:50:35;;;;;;;7.68;5.43;;;26.00;99.90;;;;;;5008832;28;20073;-25
2022/05/19 09:53:12;;;;;;;8.10;5.80;;;25.90;99.90;;;;;;5017035;28;20115;-24
2022/05/19 09:55:44;;;;;;;9.43;6.05;;;25.60;99.90;;;;;;5032017;28;20049;-25
2022/05/19 09:58:19;;;;;;;;;;;25.60;99.90;;;;;;5030187;28;20391;-24
2022/05/19 10:00:56;;;;;;;7.60;6.00;;;25.30;99.90;;;;;;5023274;28;20008;-24
2022/05/19 10:03:40;;;;;;;9.73;6.03;;;25.20;1.00;;;;;;5033186;28;20544;-25
2022/05/19 10:06:14;;;;;;;10.27;6.43;;;25.10;99.90;;;;;;5030467;28;20366;-25
2022/05/19 10:08:42;;;;;;;10.60;6.28;;;24.50;1.00;;;;;;5016237;28;20141;-25
2022/05/19 10:11:18;;;;;;;10.60;6.53;;;24.90;1.00;;;;;;5027524;28;20363;-24
2022/05/19 10:13:58;;;;;;;9.70;6.72;;;24.90;99.90;;;;;;5030608;28;20055;-24
2022/05/19 10:16:41;;;;;;;9.50;6.47;;;24.70;99.90;;;;;;5036625;28;20053;-24
2022/05/19 10:19:20;;;;;;;14.98;6.43;;;24.60;99.90;;;;;;5036895;28;20056;-24
2022/05/19 10:22:00;;;;;;;13.93;6.47;;;25.20;99.90;;;;;;5035950;28;20396;-24
2022/05/19 10:24:51;;;;;;;11.70;7.30;;;25.80;99.90;;;;;;5020481;28;20468;-25
2022/05/19 10:33:23;;;;;;;9.63;6.57;;;28.10;99.90;;;;;;5035435;28;20405;-26
2022/05/19 10:36:20;;;;;;;13.20;6.95;;;28.30;52.00;;;;;;5029128;28;20491;-25
2022/05/19 10:39:16;;;;;;;8.65;7.15;;;28.80;1.00;;;;;;5035919;28;20501;-25
2022/05/19 10:42:03;;;;;;;12.00;7.53;;;28.50;1.00;;;;;;5036148;28;20042;-25
2022/05/19 10:44:38;;;;;;;11.98;6.72;;;27.90;1.00;;;;;;5028292;28;20054;-25
2022/05/19 10:47:27;;;;;;;9.27;7.15;;;27.50;15.90;;;;;;5016789;28;20046;-25
2022/05/19 10:50:02;;;;;;;8.73;6.10;;;27.10;1.00;;;;;;5015694;28;20069;-25
2022/05/19 10:53:06;;;;;;;8.60;5.50;;;26.80;91.20;;;;;;5015837;28;20437;-24
2022/05/19 10:55:41;;;;;;;7.22;4.80;;;26.60;1.00;;;;;;5016274;28;20056;-25
2022/05/19 10:58:33;;;;;;;6.20;4.55;;;26.70;33.20;;;;;;5016287;28;20050;-25
2022/05/19 11:01:08;;;;;;;7.28;3.88;;;26.70;1.00;;;;;;5015724;28;20473;-24
2022/05/19 11:04:09;;;;;;;7.20;4.18;;;27.10;1.00;;;;;;5015668;28;20405;-25
2022/05/19 11:06:59;;;;;;;6.75;4.65;;;28.00;1.00;;;;;;5019986;28;20054;-25
2022/05/19 11:09:44;;;;;;;9.10;3.25;;;29.00;1.00;;;;;;5035947;28;20049;-25
2022/05/19 11:12:19;;;;;;;5.30;2.88;;;29.90;99.90;;;;;;5021245;28;20073;-25
2022/05/19 11:15:09;;;;;;;4.28;2.50;;;30.30;99.90;;;;;;5027050;28;20457;-26
2022/05/19 11:18:02;;;;;;;7.82;2.88;;;30.50;99.90;;;;;;5026628;28;20041;-25
2022/05/19 11:20:31;;;;;;;7.68;2.85;;;30.40;99.90;;;;;;5035745;28;20051;-25
2022/05/19 11:23:05;;;;;;;8.88;3.75;;;30.30;99.90;;;;;;5029001;28;20045;-25
2022/05/19 11:28:49;;;;;;;4.93;3.22;;;30.00;99.90;;;;;;5033021;28;20061;-25
2022/05/19 11:31:24;;;;;;;14.98;6.25;;;30.00;99.90;;;;;;5015095;28;20038;-25
2022/05/19 11:33:54;;;;;;;6.47;5.63;;;30.10;99.90;;;;;;5033257;28;20456;-25
2022/05/19 11:36:37;;;;;;;5.75;4.78;;;30.50;99.90;;;;;;5031574;28;20402;-25
2022/05/19 11:39:27;;;;;;;6.07;4.38;;;30.10;99.90;;;;;;5028256;28;20053;-25
2022/05/19 11:41:57;;;;;;;6.57;4.28;;;29.90;99.90;;;;;;5030773;28;20049;-25
2022/05/19 11:44:33;;;;;;;7.63;4.93;;;29.60;99.90;;;;;;5034313;28;20049;-25
2022/05/19 11:47:04;;;;;;;9.32;4.65;;;29.30;99.90;;;;;;5034679;28;20499;-25
2022/05/19 11:55:47;;;;;;;16.48;5.95;;;27.60;99.90;;;;;;5034597;28;20084;-25
2022/05/19 11:58:21;;;;;;;6.82;5.68;;;27.00;99.90;;;;;;5035150;28;20118;-25
2022/05/19 12:00:52;;;;;;;13.15;5.68;;;26.40;99.90;;;;;;5033667;28;20041;-25
2022/05/19 12:03:18;;;;;;;18.17;8.25;;;25.90;1.00;;;;;;5030323;28;20045;-25
2022/05/19 12:06:17;;;;;;;11.48;7.95;;;25.50;1.00;;;;;;5014553;28;20081;-25
2022/05/19 12:09:07;;;;;;;16.33;7.60;;;25.00;1.00;;;;;;5015078;28;20108;-24
2022/05/19 12:11:47;;;;;;;11.18;8.32;;;24.70;1.00;;;;;;5013658;28;20085;-25
2022/05/19 12:14:25;;;;;;;48.13;9.60;;;24.50;42.60;;;;;;5018808;28;20611;-25
2022/05/19 12:17:25;;;;;;;14.57;8.65;;;24.10;99.90;;;;;;5023137;28;20049;-25
2022/05/19 12:20:02;;;;;;;15.20;8.70;;;23.70;99.90;;;;;;5034065;28;20050;-25
2022/05/19 12:22:35;;;;;;;15.43;9.32;;;23.80;99.90;;;;;;5034304;28;20067;-25
2022/05/19 12:25:01;;;;;;;25.17;10.52;;;23.50;99.90;;;;;;5033279;28;20058;-24
2022/05/19 12:27:39;;;;;;;15.13;10.85;;;23.40;99.90;;;;;;5021307;28;20056;-23
2022/05/19 12:33:23;;;;;;;13.68;8.57;;;22.60;1.00;;;;;;5016734;28;20128;-22
2022/05/19 12:35:54;;;;;;;11.23;8.77;;;22.10;1.00;;;;;;5026091;28;20049;-22
2022/05/19 12:38:34;;;;;;;14.57;8.52;;;22.00;61.40;;;;;;5031306;28;20045;-22
2022/05/19 12:41:26;;;;;;;9.43;6.38;;;21.40;99.90;;;;;;5024613;28;20545;-23
2022/05/19 12:43:57;;;;;;;10.27;6.88;;;21.20;99.90;;;;;;5034014;28;20064;-23
2022/05/19 12:46:41;;;;;;;20.67;8.27;;;21.00;99.90;;;;;;5033726;28;20041;-20
2022/05/19 12:49:21;;;;;;;9.70;4.20;;;19.50;99.90;;;;;;5031718;28;20405;-20
2022/05/19 12:51:53;;;;;;;10.15;2.90;;;;;;;;;;5020166;28;20064;-22
2022/05/19 12:54:20;;;;;;;8.63;3.00;;;;;;;;;;5033496;28;20053;-23
2022/05/19 12:56:46;;;;;;;10.77;3.78;;;;;;;;;;5023454;28;20444;-23
2022/05/19 12:59:31;;;;;;;11.07;6.65;;;;;;;;;;5033426;28;20511;-24
2022/05/19 13:01:59;;;;;;;16.80;10.75;;;;;;;;;;5032557;28;20061;-24
2022/05/19 13:04:25;;;;;;;19.40;13.38;;;;;;;;;;5034025;28;20119;-24
2022/05/19 13:06:51;;;;;;;18.98;16.23;;;;;;;;;;5032776;28;20053;-24
2022/05/19 13:09:21;;;;;;;19.88;17.80;;;;;;;;;;5019703;28;20046;-25
2022/05/19 13:11:53;;;;;;;20.52;17.25;;;;;;;;;;5014656;28;20133;-24
2022/05/19 13:14:21;;;;;;;19.95;15.32;;;;;;;;;;5017331;28;20089;-25
2022/05/19 13:16:52;;;;;;;20.70;15.52;;;;;;;;;;5016476;28;20433;-26
2022/05/19 13:19:37;;;;;;;20.02;16.90;;;;;;;;;;5016451;28;20151;-26
2022/05/19 13:22:07;;;;;;;27.80;20.65;;;;;;;;;;5018163;28;20137;-27
2022/05/19 13:24:45;;;;;;;27.83;21.98;;;;;;;;;;5018278;28;20054;-29